< < Back
Terminal Aerodrome Forecast


Current Version              Previous Versions:   1  2  3  4  5  6  7  8  9  

Terminal Aerodrome Forecast

662
FTUS42 KTAE 302320
TAFVLD
TAF
KVLD 302320Z 3100/3124 00000KT P6SM SCT250
     FM311800 VRB04KT P6SM SCT060 SCT250=



Latest METAR

862
SAUS70 KWBC 310500 RRA
MTRVLD
METAR KVLD 310453Z AUTO 00000KT 8SM CLR 21/20 A2994 RMK AO2 SLP144
T02110200 403390206


USA.gov is the U.S. government's official web portal to all federal, state and local government web resources and services.